Questa, New Mexico
Current Conditions -  °F | °C
As of 11:55 AM on Monday 20 Oct 2014 (Local Time) from KSKX Reporting Station
Clear Clear  
Wind Chill: 63°   Ceiling: Unl
Heat Index: 63°   Visibility: 10mi
Dew Point: 36°   Wind: 0mph
Humidity: 37%   Direction: NA
Pressure: 30.27"   Gusts: NA
Location:  36.7°N, 105.59°W
Report Text: KSKX 201755Z AUTO 00000KT 10SM CLR 17/02 A3027 RMK AO1 10180 20030 57014
Loading
Personal Weather Stations






























Interactive Weather Map
Tropical Storm Tracking
New forecast layout! Learn more

10-Day Weather Forecast

Advertisements
Track Severe Weather on mobile